createdAt,value
2023-05-04T00:00:21.988Z,0.00
2023-05-04T00:01:21.968Z,0.00
2023-05-04T00:02:21.978Z,0.00
2023-05-04T00:03:22.076Z,0.00
2023-05-04T00:04:21.954Z,0.00
2023-05-04T00:05:21.930Z,0.00
2023-05-04T00:06:21.925Z,0.00
2023-05-04T00:07:21.908Z,0.00
2023-05-04T00:08:21.884Z,0.00
2023-05-04T00:09:21.883Z,0.00
2023-05-04T00:10:21.906Z,0.00
2023-05-04T00:11:21.869Z,0.00
2023-05-04T00:12:21.842Z,0.00
2023-05-04T00:13:21.839Z,0.00
2023-05-04T00:14:21.810Z,0.00
2023-05-04T00:15:21.808Z,0.00
2023-05-04T00:16:21.845Z,0.00
2023-05-04T00:17:21.836Z,0.00
2023-05-04T00:18:21.767Z,0.00
2023-05-04T00:19:21.798Z,0.00
2023-05-04T00:20:21.756Z,0.00
2023-05-04T00:21:21.747Z,0.00
2023-05-04T00:22:21.755Z,0.00
2023-05-04T00:23:21.724Z,0.00
2023-05-04T00:24:21.715Z,0.00
2023-05-04T00:25:21.698Z,0.00
2023-05-04T00:26:21.703Z,0.00
2023-05-04T00:27:21.765Z,0.00
2023-05-04T00:28:21.696Z,0.00
2023-05-04T00:29:21.662Z,0.00
2023-05-04T00:30:21.652Z,0.00
2023-05-04T00:31:21.672Z,0.00
2023-05-04T00:32:21.695Z,0.00
2023-05-04T00:33:21.616Z,0.00
2023-05-04T00:34:21.613Z,0.00
2023-05-04T00:35:21.586Z,0.00
2023-05-04T00:36:21.581Z,0.00
2023-05-04T00:37:21.555Z,0.00
2023-05-04T00:38:21.561Z,0.00
2023-05-04T00:39:21.530Z,0.00
2023-05-04T00:40:21.538Z,0.00
2023-05-04T00:41:21.515Z,0.00
2023-05-04T00:42:21.523Z,0.00
2023-05-04T00:43:21.495Z,0.00
2023-05-04T00:44:21.471Z,0.00
2023-05-04T00:45:21.465Z,0.00
2023-05-04T00:46:21.467Z,0.00
2023-05-04T00:47:21.536Z,0.00
2023-05-04T00:48:21.461Z,0.00
2023-05-04T00:49:21.609Z,0.00
2023-05-04T00:50:21.462Z,0.00
2023-05-04T00:51:21.436Z,0.00
2023-05-04T00:52:21.392Z,0.00
2023-05-04T00:53:21.381Z,0.00
2023-05-04T00:54:21.367Z,0.00
2023-05-04T00:55:21.404Z,0.00
2023-05-04T00:56:21.352Z,0.00
2023-05-04T00:57:21.387Z,0.00
2023-05-04T00:58:21.314Z,0.00
2023-05-04T00:59:21.329Z,0.00
2023-05-04T01:00:21.322Z,0.00
2023-05-04T01:01:21.342Z,0.00
2023-05-04T01:02:21.296Z,0.00
2023-05-04T01:03:21.327Z,0.00
2023-05-04T01:04:21.268Z,0.00
2023-05-04T01:05:21.258Z,0.00
2023-05-04T01:06:21.300Z,0.00
2023-05-04T01:07:21.320Z,0.00
2023-05-04T01:08:21.222Z,0.00
2023-05-04T01:09:21.197Z,0.00
2023-05-04T01:10:21.198Z,0.00
2023-05-04T01:11:21.189Z,0.00
2023-05-04T01:12:21.179Z,0.00
2023-05-04T01:13:21.160Z,0.00
2023-05-04T01:14:21.149Z,0.00
2023-05-04T01:15:21.136Z,0.00
2023-05-04T01:16:21.193Z,0.00
2023-05-04T01:17:21.112Z,0.00
2023-05-04T01:18:21.094Z,0.00
2023-05-04T01:19:21.096Z,0.00
2023-05-04T01:20:21.075Z,0.00
2023-05-04T01:21:21.059Z,0.00
2023-05-04T01:22:21.053Z,0.00
2023-05-04T01:23:21.055Z,0.00
2023-05-04T01:24:21.051Z,0.00
2023-05-04T01:25:21.029Z,0.00
2023-05-04T01:26:21.010Z,0.00
2023-05-04T01:27:20.998Z,0.00
2023-05-04T01:28:20.977Z,0.00
2023-05-04T01:29:20.980Z,0.00
2023-05-04T01:30:20.977Z,0.00
2023-05-04T01:31:21.063Z,0.00
2023-05-04T01:32:20.954Z,0.00
2023-05-04T01:33:20.921Z,0.00
2023-05-04T01:34:20.938Z,0.00
2023-05-04T01:35:20.921Z,0.00
2023-05-04T01:36:20.914Z,0.00
2023-05-04T01:37:20.867Z,0.00
2023-05-04T01:38:20.867Z,0.00
2023-05-04T01:39:20.879Z,0.00
2023-05-04T01:40:20.851Z,0.00
2023-05-04T01:41:20.868Z,0.00
2023-05-04T01:42:20.854Z,0.00
2023-05-04T01:43:20.822Z,0.00
2023-05-04T01:44:20.804Z,0.00
2023-05-04T01:45:20.809Z,0.00
2023-05-04T01:46:20.848Z,0.00
2023-05-04T01:47:20.778Z,0.00
2023-05-04T01:48:20.747Z,0.00
2023-05-04T01:49:20.742Z,0.00
2023-05-04T01:50:20.748Z,0.00
2023-05-04T01:51:20.736Z,0.00
2023-05-04T01:52:20.704Z,0.00
2023-05-04T01:53:20.702Z,0.00
2023-05-04T01:54:20.707Z,0.00
2023-05-04T01:55:20.681Z,0.00
2023-05-04T01:56:20.647Z,0.00
2023-05-04T01:57:20.690Z,0.00
2023-05-04T01:58:20.641Z,0.00
2023-05-04T01:59:20.675Z,0.00
2023-05-04T02:00:20.623Z,0.00
2023-05-04T02:01:20.607Z,0.00
2023-05-04T02:02:20.597Z,0.00
2023-05-04T02:03:20.655Z,0.00
2023-05-04T02:04:20.576Z,0.00
2023-05-04T02:05:20.566Z,0.00
2023-05-04T02:06:20.548Z,0.00
2023-05-04T02:07:20.550Z,0.00
2023-05-04T02:08:20.534Z,0.00
2023-05-04T02:09:20.518Z,0.00
2023-05-04T02:10:20.512Z,0.00
2023-05-04T02:11:20.479Z,0.00
2023-05-04T02:12:20.464Z,0.00
2023-05-04T02:13:20.495Z,0.00
2023-05-04T02:14:20.457Z,0.00
2023-05-04T02:15:20.458Z,0.00
2023-05-04T02:16:20.468Z,0.00
2023-05-04T02:17:20.428Z,0.00
2023-05-04T02:18:20.422Z,0.00
2023-05-04T02:19:20.416Z,0.00
2023-05-04T02:20:20.402Z,0.00
2023-05-04T02:21:20.378Z,0.00
2023-05-04T02:22:20.364Z,0.00
2023-05-04T02:23:20.366Z,0.00
2023-05-04T02:24:20.351Z,0.00
2023-05-04T02:25:20.369Z,0.00
2023-05-04T02:26:20.366Z,0.00
2023-05-04T02:27:20.339Z,0.00
2023-05-04T02:28:20.368Z,0.00
2023-05-04T02:29:20.278Z,0.00
2023-05-04T02:30:20.277Z,0.00
2023-05-04T02:31:20.298Z,0.00
2023-05-04T02:32:20.412Z,0.00
2023-05-04T02:33:20.238Z,0.00
2023-05-04T02:34:20.234Z,0.00
2023-05-04T02:35:20.210Z,0.00
2023-05-04T02:36:20.234Z,0.00
2023-05-04T02:37:20.202Z,0.00
2023-05-04T02:38:20.190Z,0.00
2023-05-04T02:39:20.180Z,0.00
2023-05-04T02:40:20.166Z,0.00
2023-05-04T02:41:20.166Z,0.00
2023-05-04T02:42:20.136Z,0.00
2023-05-04T02:43:20.151Z,0.00
2023-05-04T02:44:20.140Z,0.00
2023-05-04T02:45:20.124Z,0.00
2023-05-04T02:46:20.284Z,0.00
2023-05-04T02:47:20.100Z,0.00
2023-05-04T02:48:20.084Z,0.00
2023-05-04T02:49:20.076Z,0.00
2023-05-04T02:50:20.059Z,0.00
2023-05-04T02:51:20.065Z,0.00
2023-05-04T02:52:20.041Z,0.00
2023-05-04T02:53:20.054Z,0.00
2023-05-04T02:54:19.990Z,0.00
2023-05-04T02:55:19.979Z,0.00
2023-05-04T02:56:19.986Z,0.00
2023-05-04T02:57:19.970Z,0.00
2023-05-04T02:58:19.988Z,0.00
2023-05-04T02:59:19.944Z,0.00
2023-05-04T03:00:19.934Z,0.00
2023-05-04T03:01:19.966Z,0.00
2023-05-04T03:02:19.900Z,0.00
2023-05-04T03:03:19.944Z,0.00
2023-05-04T03:04:19.936Z,0.00
2023-05-04T03:05:19.908Z,0.00
2023-05-04T03:06:19.875Z,0.00
2023-05-04T03:07:19.882Z,0.00
2023-05-04T03:08:19.863Z,0.00
2023-05-04T03:09:19.840Z,0.00
2023-05-04T03:10:19.858Z,0.00
2023-05-04T03:11:19.824Z,0.00
2023-05-04T03:12:19.793Z,0.00
2023-05-04T03:13:19.802Z,0.00
2023-05-04T03:14:19.804Z,0.00
2023-05-04T03:15:19.762Z,0.00
2023-05-04T03:16:19.790Z,0.00
2023-05-04T03:17:19.747Z,0.00
2023-05-04T03:18:19.761Z,0.00
2023-05-04T03:19:19.770Z,0.00
2023-05-04T03:20:19.712Z,0.00
2023-05-04T03:21:19.708Z,0.00
2023-05-04T03:22:19.686Z,0.00
2023-05-04T03:23:19.705Z,0.00
2023-05-04T03:24:19.685Z,0.00
2023-05-04T03:25:19.679Z,0.00
2023-05-04T03:26:19.677Z,0.00
2023-05-04T03:27:19.636Z,0.00
2023-05-04T03:28:19.651Z,0.00
2023-05-04T03:29:19.613Z,0.00
2023-05-04T03:30:19.591Z,0.00
2023-05-04T03:31:19.676Z,0.00
2023-05-04T03:32:19.603Z,0.00
2023-05-04T03:33:19.574Z,0.00
2023-05-04T03:34:19.540Z,0.00
2023-05-04T03:35:24.687Z,0.00
2023-05-04T03:36:19.534Z,0.00
2023-05-04T03:37:19.540Z,0.00
2023-05-04T03:38:19.515Z,0.00
2023-05-04T03:39:19.519Z,0.00
2023-05-04T03:40:19.495Z,0.00
2023-05-04T03:41:19.484Z,0.00
2023-05-04T03:42:19.471Z,0.00
2023-05-04T03:43:19.474Z,0.00
2023-05-04T03:44:19.450Z,0.00
2023-05-04T03:45:19.456Z,0.00
2023-05-04T03:46:19.460Z,0.00
2023-05-04T03:47:19.404Z,0.00
2023-05-04T03:48:19.400Z,0.00
2023-05-04T03:49:19.414Z,0.00
2023-05-04T03:50:19.363Z,0.00
2023-05-04T03:51:19.358Z,0.00
2023-05-04T03:52:19.360Z,0.00
2023-05-04T03:53:19.361Z,0.00
2023-05-04T03:54:19.348Z,0.00
2023-05-04T03:55:19.345Z,0.00
2023-05-04T03:56:19.327Z,0.00
2023-05-04T03:57:19.322Z,0.00
2023-05-04T03:58:19.276Z,0.00
2023-05-04T03:59:19.298Z,0.00
2023-05-04T04:00:19.276Z,0.00
2023-05-04T04:01:19.259Z,0.00
2023-05-04T04:02:19.265Z,5.62
2023-05-04T04:03:19.421Z,5.62
2023-05-04T04:04:19.238Z,5.62
2023-05-04T04:05:19.226Z,5.62
2023-05-04T04:06:19.211Z,5.62
2023-05-04T04:07:19.187Z,5.62
2023-05-04T04:08:19.186Z,5.62
2023-05-04T04:09:19.156Z,5.62
2023-05-04T04:10:19.185Z,5.62
2023-05-04T04:11:19.155Z,11.25
2023-05-04T04:12:19.140Z,11.25
2023-05-04T04:13:19.232Z,11.25
2023-05-04T04:14:19.101Z,11.25
2023-05-04T04:15:19.117Z,11.25
2023-05-04T04:16:19.129Z,11.25
2023-05-04T04:17:19.089Z,11.25
2023-05-04T04:18:19.047Z,16.88
2023-05-04T04:19:19.079Z,16.88
2023-05-04T04:20:19.083Z,16.88
2023-05-04T04:21:19.037Z,16.88
2023-05-04T04:22:19.020Z,16.88
2023-05-04T04:23:19.078Z,22.50
2023-05-04T04:24:18.999Z,22.50
2023-05-04T04:25:18.985Z,22.50
2023-05-04T04:26:18.977Z,22.50
2023-05-04T04:27:18.986Z,28.12
2023-05-04T04:28:18.952Z,28.12
2023-05-04T04:29:18.941Z,28.12
2023-05-04T04:30:18.936Z,28.12
2023-05-04T04:31:19.034Z,28.12
2023-05-04T04:32:18.898Z,28.12
2023-05-04T04:33:18.906Z,28.12
2023-05-04T04:34:18.887Z,33.75
2023-05-04T04:35:18.900Z,33.75
2023-05-04T04:36:18.888Z,33.75
2023-05-04T04:37:18.864Z,33.75
2023-05-04T04:38:18.880Z,33.75
2023-05-04T04:39:18.868Z,39.38
2023-05-04T04:40:18.819Z,39.38
2023-05-04T04:41:18.838Z,39.38
2023-05-04T04:42:18.798Z,39.38
2023-05-04T04:43:18.778Z,39.38
2023-05-04T04:44:18.776Z,39.38
2023-05-04T04:45:18.754Z,45.00
2023-05-04T04:46:18.794Z,45.00
2023-05-04T04:47:18.740Z,45.00
2023-05-04T04:48:18.725Z,45.00
2023-05-04T04:49:18.753Z,45.00
2023-05-04T04:50:18.714Z,45.00
2023-05-04T04:51:18.699Z,50.62
2023-05-04T04:52:18.697Z,50.62
2023-05-04T04:53:18.670Z,50.62
2023-05-04T04:54:18.665Z,50.62
2023-05-04T04:55:18.639Z,50.62
2023-05-04T04:56:18.709Z,50.62
2023-05-04T04:57:18.655Z,56.25
2023-05-04T04:58:18.620Z,56.25
2023-05-04T04:59:18.609Z,56.25
2023-05-04T05:00:18.615Z,56.25
2023-05-04T05:01:18.624Z,56.25
2023-05-04T05:02:18.564Z,56.25
2023-05-04T05:03:18.563Z,56.25
2023-05-04T05:04:18.574Z,61.88
2023-05-04T05:05:18.552Z,61.88
2023-05-04T05:06:18.540Z,61.88
2023-05-04T05:07:18.512Z,61.88
2023-05-04T05:08:18.494Z,61.88
2023-05-04T05:09:18.490Z,67.50
2023-05-04T05:10:18.486Z,67.50
2023-05-04T05:11:18.505Z,67.50
2023-05-04T05:12:18.458Z,67.50
2023-05-04T05:13:18.561Z,67.50
2023-05-04T05:14:18.433Z,67.50
2023-05-04T05:15:18.447Z,67.50
2023-05-04T05:16:18.448Z,73.12
2023-05-04T05:17:18.444Z,73.12
2023-05-04T05:18:18.386Z,73.12
2023-05-04T05:19:18.396Z,73.12
2023-05-04T05:20:18.374Z,73.12
2023-05-04T05:21:18.394Z,73.12
2023-05-04T05:22:18.356Z,73.12
2023-05-04T05:23:18.348Z,73.12
2023-05-04T05:24:18.313Z,73.12
2023-05-04T05:25:18.363Z,73.12
2023-05-04T05:26:18.299Z,73.12
2023-05-04T05:27:18.330Z,73.12
2023-05-04T05:28:18.293Z,73.12
2023-05-04T05:29:18.264Z,78.75
2023-05-04T05:30:18.260Z,78.75
2023-05-04T05:31:18.297Z,78.75
2023-05-04T05:32:18.232Z,78.75
2023-05-04T05:33:18.236Z,78.75
2023-05-04T05:34:18.214Z,78.75
2023-05-04T05:35:18.220Z,78.75
2023-05-04T05:36:18.177Z,78.75
2023-05-04T05:37:18.192Z,84.38
2023-05-04T05:38:18.207Z,84.38
2023-05-04T05:39:18.164Z,84.38
2023-05-04T05:40:18.152Z,84.38
2023-05-04T05:41:18.137Z,84.38
2023-05-04T05:42:18.131Z,84.38
2023-05-04T05:43:18.124Z,84.38
2023-05-04T05:44:18.102Z,90.00
2023-05-04T05:45:18.081Z,90.00
2023-05-04T05:46:18.120Z,90.00
2023-05-04T05:47:18.071Z,90.00
2023-05-04T05:48:18.043Z,90.00
2023-05-04T05:49:18.062Z,90.00
2023-05-04T05:50:18.037Z,90.00
2023-05-04T05:51:18.007Z,90.00
2023-05-04T05:52:18.030Z,90.00
2023-05-04T05:53:17.989Z,95.62
2023-05-04T05:54:17.986Z,95.62
2023-05-04T05:55:17.959Z,95.62
2023-05-04T05:56:17.945Z,95.62
2023-05-04T05:57:17.951Z,95.62
2023-05-04T05:58:17.941Z,95.62
2023-05-04T05:59:17.922Z,95.62
2023-05-04T06:00:17.943Z,95.62
2023-05-04T06:01:18.349Z,95.62
2023-05-04T06:02:17.988Z,95.62
2023-05-04T06:03:17.979Z,95.62
2023-05-04T06:04:18.043Z,95.62
2023-05-04T06:05:17.857Z,95.62
2023-05-04T06:06:17.902Z,95.62
2023-05-04T06:07:17.836Z,95.62
2023-05-04T06:08:17.822Z,95.62
2023-05-04T06:09:17.823Z,95.62
2023-05-04T06:10:17.798Z,95.62
2023-05-04T06:11:17.788Z,95.62
2023-05-04T06:12:17.804Z,95.62
2023-05-04T06:13:17.964Z,95.62
2023-05-04T06:14:17.760Z,95.62
2023-05-04T06:15:17.737Z,95.62
2023-05-04T06:16:17.795Z,95.62
2023-05-04T06:17:17.731Z,95.62
2023-05-04T06:18:17.722Z,95.62
2023-05-04T06:19:17.694Z,95.62
2023-05-04T06:20:17.703Z,95.62
2023-05-04T06:21:17.679Z,95.62
2023-05-04T06:22:17.702Z,95.62
2023-05-04T06:23:17.660Z,95.62
2023-05-04T06:24:17.665Z,95.62
2023-05-04T06:25:17.638Z,95.62
2023-05-04T06:26:17.666Z,95.62
2023-05-04T06:27:17.611Z,95.62
2023-05-04T06:28:17.634Z,95.62
2023-05-04T06:29:17.589Z,101.25
2023-05-04T06:30:17.585Z,101.25
2023-05-04T06:31:17.610Z,101.25
2023-05-04T06:32:17.598Z,101.25
2023-05-04T06:33:17.532Z,101.25
2023-05-04T06:34:17.545Z,101.25
2023-05-04T06:35:17.507Z,101.25
2023-05-04T06:36:17.509Z,101.25
2023-05-04T06:37:17.489Z,101.25
2023-05-04T06:38:17.480Z,101.25
2023-05-04T06:39:17.467Z,101.25
2023-05-04T06:40:17.519Z,101.25
2023-05-04T06:41:17.453Z,101.25
2023-05-04T06:42:17.433Z,101.25
2023-05-04T06:43:17.467Z,101.25
2023-05-04T06:44:17.425Z,101.25
2023-05-04T06:45:18.177Z,101.25
2023-05-04T06:46:17.644Z,101.25
2023-05-04T06:47:17.402Z,101.25
2023-05-04T06:48:17.388Z,106.88
2023-05-04T06:49:17.364Z,106.88
2023-05-04T06:50:17.350Z,106.88
2023-05-04T06:51:17.337Z,106.88
2023-05-04T06:52:17.326Z,106.88
2023-05-04T06:53:17.308Z,106.88
2023-05-04T06:54:17.305Z,106.88
2023-05-04T06:55:17.296Z,106.88
2023-05-04T06:56:17.274Z,106.88
2023-05-04T06:57:17.265Z,106.88
2023-05-04T06:58:17.272Z,106.88
2023-05-04T06:59:17.227Z,106.88
2023-05-04T07:00:17.257Z,106.88
2023-05-04T07:01:18.532Z,106.88
2023-05-04T07:02:17.210Z,106.88
2023-05-04T07:03:17.321Z,106.88
2023-05-04T07:04:17.233Z,112.50
2023-05-04T07:05:17.175Z,112.50
2023-05-04T07:06:17.166Z,112.50
2023-05-04T07:07:17.170Z,112.50
2023-05-04T07:08:17.144Z,112.50
2023-05-04T07:09:17.139Z,112.50
2023-05-04T07:10:17.123Z,112.50
2023-05-04T07:11:17.096Z,112.50
2023-05-04T07:12:17.081Z,112.50
2023-05-04T07:13:17.076Z,112.50
2023-05-04T07:14:17.109Z,112.50
2023-05-04T07:15:17.067Z,112.50
2023-05-04T07:16:17.091Z,112.50
2023-05-04T07:17:17.054Z,112.50
2023-05-04T07:18:17.045Z,112.50
2023-05-04T07:19:17.034Z,112.50
2023-05-04T07:20:17.017Z,118.12
2023-05-04T07:21:27.440Z,118.12
2023-05-04T07:22:16.992Z,118.12
2023-05-04T07:23:16.974Z,118.12
2023-05-04T07:24:16.975Z,118.12
2023-05-04T07:25:16.960Z,118.12
2023-05-04T07:26:16.949Z,118.12
2023-05-04T07:27:16.932Z,118.12
2023-05-04T07:28:16.922Z,118.12
2023-05-04T07:29:16.897Z,123.75
2023-05-04T07:30:16.893Z,123.75
2023-05-04T07:31:16.909Z,123.75
2023-05-04T07:32:16.974Z,123.75
2023-05-04T07:33:16.857Z,118.12
2023-05-04T07:34:16.835Z,118.12
2023-05-04T07:35:16.846Z,118.12
2023-05-04T07:36:16.832Z,118.12
2023-05-04T07:37:16.830Z,123.75
2023-05-04T07:38:16.785Z,123.75
2023-05-04T07:39:16.784Z,123.75
2023-05-04T07:40:16.778Z,123.75
2023-05-04T07:41:16.767Z,123.75
2023-05-04T07:42:16.772Z,123.75
2023-05-04T07:43:16.746Z,123.75
2023-05-04T07:44:16.748Z,129.38
2023-05-04T07:45:16.740Z,129.38
2023-05-04T07:46:16.804Z,129.38
2023-05-04T07:47:16.704Z,129.38
2023-05-04T07:48:17.976Z,129.38
2023-05-04T07:49:16.664Z,129.38
2023-05-04T07:50:16.697Z,135.00
2023-05-04T07:51:16.634Z,135.00
2023-05-04T07:52:16.638Z,135.00
2023-05-04T07:53:16.632Z,135.00
2023-05-04T07:54:16.657Z,140.62
2023-05-04T07:55:16.596Z,140.62
2023-05-04T07:56:16.617Z,140.62
2023-05-04T07:57:16.589Z,140.62
2023-05-04T07:58:16.806Z,146.25
2023-05-04T07:59:16.583Z,146.25
2023-05-04T08:00:16.578Z,146.25
2023-05-04T08:01:16.564Z,146.25
2023-05-04T08:02:16.564Z,146.25
2023-05-04T08:03:16.559Z,151.88
2023-05-04T08:04:16.505Z,151.88
2023-05-04T08:05:16.532Z,151.88
2023-05-04T08:06:16.493Z,151.88
2023-05-04T08:07:16.478Z,151.88
2023-05-04T08:08:16.449Z,151.88
2023-05-04T08:09:16.454Z,151.88
2023-05-04T08:10:16.489Z,157.50
2023-05-04T08:11:20.556Z,157.50
2023-05-04T08:12:16.398Z,157.50
2023-05-04T08:13:16.481Z,157.50
2023-05-04T08:14:16.394Z,163.12
2023-05-04T08:15:16.383Z,163.12
2023-05-04T08:16:16.379Z,163.12
2023-05-04T08:17:16.361Z,163.12
2023-05-04T08:18:16.360Z,163.12
2023-05-04T08:19:16.363Z,168.75
2023-05-04T08:20:16.333Z,168.75
2023-05-04T08:21:16.313Z,168.75
2023-05-04T08:22:16.288Z,168.75
2023-05-04T08:23:16.548Z,174.38
2023-05-04T08:24:16.271Z,168.75
2023-05-04T08:25:16.293Z,174.38
2023-05-04T08:26:16.276Z,174.38
2023-05-04T08:27:16.289Z,180.00
2023-05-04T08:28:16.224Z,180.00
2023-05-04T08:29:16.272Z,180.00
2023-05-04T08:30:16.229Z,180.00
2023-05-04T08:31:16.237Z,174.38
2023-05-04T08:32:16.206Z,174.38
2023-05-04T08:33:16.184Z,174.38
2023-05-04T08:34:16.185Z,168.75
2023-05-04T08:35:16.161Z,168.75
2023-05-04T08:36:16.159Z,168.75
2023-05-04T08:37:16.135Z,163.12
2023-05-04T08:38:16.143Z,163.12
2023-05-04T08:39:16.136Z,163.12
2023-05-04T08:40:16.127Z,163.12
2023-05-04T08:41:16.100Z,157.50
2023-05-04T08:42:16.105Z,157.50
2023-05-04T08:43:16.064Z,157.50
2023-05-04T08:44:16.071Z,157.50
2023-05-04T08:45:16.048Z,151.88
2023-05-04T08:46:16.139Z,151.88
2023-05-04T08:47:16.020Z,151.88
2023-05-04T08:48:16.049Z,146.25
2023-05-04T08:49:16.022Z,146.25
2023-05-04T08:50:15.996Z,146.25
2023-05-04T08:51:15.993Z,146.25
2023-05-04T08:52:15.975Z,151.88
2023-05-04T08:53:15.996Z,151.88
2023-05-04T08:54:15.982Z,146.25
2023-05-04T08:55:15.948Z,146.25
2023-05-04T08:56:15.925Z,146.25
2023-05-04T08:57:15.929Z,146.25
2023-05-04T08:58:15.911Z,146.25
2023-05-04T08:59:15.896Z,146.25
2023-05-04T09:00:15.893Z,146.25
2023-05-04T09:01:15.932Z,146.25
2023-05-04T09:02:15.916Z,140.62
2023-05-04T09:03:15.926Z,140.62
2023-05-04T09:04:15.852Z,140.62
2023-05-04T09:05:15.861Z,140.62
2023-05-04T09:06:15.849Z,140.62
2023-05-04T09:07:15.801Z,140.62
2023-05-04T09:08:15.816Z,146.25
2023-05-04T09:09:15.787Z,146.25
2023-05-04T09:10:15.825Z,146.25
2023-05-04T09:11:15.852Z,146.25
2023-05-04T09:12:15.764Z,146.25
2023-05-04T09:13:15.842Z,146.25
2023-05-04T09:14:15.734Z,146.25
2023-05-04T09:15:15.709Z,146.25
2023-05-04T09:16:15.769Z,146.25
2023-05-04T09:17:15.704Z,146.25
2023-05-04T09:18:15.756Z,146.25
2023-05-04T09:19:15.692Z,146.25
2023-05-04T09:20:15.685Z,146.25
2023-05-04T09:21:15.661Z,146.25
2023-05-04T09:22:15.719Z,146.25
2023-05-04T09:23:15.673Z,146.25
2023-05-04T09:24:15.635Z,146.25
2023-05-04T09:25:15.613Z,146.25
2023-05-04T09:26:15.615Z,146.25
2023-05-04T09:27:15.596Z,146.25
2023-05-04T09:28:15.616Z,146.25
2023-05-04T09:29:15.586Z,146.25
2023-05-04T09:30:15.612Z,146.25
2023-05-04T09:31:15.592Z,146.25
2023-05-04T09:32:15.553Z,146.25
2023-05-04T09:33:15.570Z,151.88
2023-05-04T09:34:15.545Z,151.88
2023-05-04T09:35:25.643Z,151.88
2023-05-04T09:36:15.515Z,151.88
2023-05-04T09:37:15.517Z,151.88
2023-05-04T09:38:15.481Z,151.88
2023-05-04T09:39:15.485Z,151.88
2023-05-04T09:40:15.498Z,157.50
2023-05-04T09:41:15.452Z,157.50
2023-05-04T09:42:15.453Z,157.50
2023-05-04T09:43:15.464Z,157.50
2023-05-04T09:44:15.443Z,163.12
2023-05-04T09:45:15.436Z,163.12
2023-05-04T09:46:15.416Z,157.50
2023-05-04T09:47:15.430Z,163.12
2023-05-04T09:48:15.495Z,163.12
2023-05-04T09:49:15.459Z,163.12
2023-05-04T09:50:17.568Z,163.12
2023-05-04T09:51:15.366Z,163.12
2023-05-04T09:52:15.353Z,163.12
2023-05-04T09:53:15.330Z,163.12
2023-05-04T09:54:15.364Z,163.12
2023-05-04T09:55:15.300Z,163.12
2023-05-04T09:56:15.300Z,157.50
2023-05-04T09:57:15.334Z,163.12
2023-05-04T09:58:15.292Z,163.12
2023-05-04T09:59:15.265Z,163.12
2023-05-04T10:00:15.278Z,168.75
2023-05-04T10:01:15.290Z,168.75
2023-05-04T10:02:22.574Z,174.38
2023-05-04T10:03:15.507Z,174.38
2023-05-04T10:04:15.224Z,180.00
2023-05-04T10:05:15.223Z,180.00
2023-05-04T10:06:15.208Z,180.00
2023-05-04T10:07:15.205Z,180.00
2023-05-04T10:08:15.198Z,180.00
2023-05-04T10:09:15.254Z,185.62
2023-05-04T10:10:15.157Z,185.62
2023-05-04T10:11:15.152Z,185.62
2023-05-04T10:12:15.138Z,185.62
2023-05-04T10:13:15.168Z,185.62
2023-05-04T10:14:15.117Z,191.25
2023-05-04T10:15:15.113Z,191.25
2023-05-04T10:16:15.120Z,191.25
2023-05-04T10:17:15.066Z,191.25
2023-05-04T10:18:15.071Z,196.88
2023-05-04T10:19:15.067Z,196.88
2023-05-04T10:20:15.052Z,196.88
2023-05-04T10:21:15.042Z,196.88
2023-05-04T10:22:15.006Z,196.88
2023-05-04T10:23:15.031Z,196.88
2023-05-04T10:24:15.016Z,202.50
2023-05-04T10:25:14.995Z,208.12
2023-05-04T10:26:14.977Z,208.12
2023-05-04T10:27:14.989Z,208.12
2023-05-04T10:28:14.968Z,208.12
2023-05-04T10:29:14.979Z,202.50
2023-05-04T10:30:14.953Z,202.50
2023-05-04T10:31:14.950Z,202.50
2023-05-04T10:32:14.914Z,202.50
2023-05-04T10:33:14.914Z,208.12
2023-05-04T10:34:14.918Z,208.12
2023-05-04T10:35:14.877Z,208.12
2023-05-04T10:36:14.852Z,208.12
2023-05-04T10:37:14.871Z,208.12
2023-05-04T10:38:14.858Z,208.12
2023-05-04T10:39:14.840Z,208.12
2023-05-04T10:40:14.818Z,213.75
2023-05-04T10:41:14.847Z,213.75
2023-05-04T10:42:14.827Z,213.75
2023-05-04T10:43:14.783Z,213.75
2023-05-04T10:44:14.759Z,213.75
2023-05-04T10:45:14.785Z,213.75
2023-05-04T10:46:14.872Z,219.38
2023-05-04T10:47:14.745Z,219.38
2023-05-04T10:48:14.746Z,219.38
2023-05-04T10:49:14.729Z,219.38
2023-05-04T10:50:14.776Z,225.00
2023-05-04T10:51:14.697Z,225.00
2023-05-04T10:52:14.690Z,225.00
2023-05-04T10:53:14.694Z,230.62
2023-05-04T10:54:14.637Z,230.62
2023-05-04T10:55:14.639Z,230.62
2023-05-04T10:56:14.654Z,230.62
2023-05-04T10:57:14.739Z,236.25
2023-05-04T10:58:14.636Z,236.25
2023-05-04T10:59:14.601Z,230.62
2023-05-04T11:00:14.688Z,230.62
2023-05-04T11:01:14.650Z,230.62
2023-05-04T11:02:14.599Z,225.00
2023-05-04T11:03:14.723Z,225.00
2023-05-04T11:04:14.546Z,230.62
2023-05-04T11:05:14.536Z,236.25
2023-05-04T11:06:14.543Z,236.25
2023-05-04T11:07:14.540Z,236.25
2023-05-04T11:08:14.501Z,236.25
2023-05-04T11:09:14.517Z,236.25
2023-05-04T11:10:14.502Z,230.62
2023-05-04T11:11:14.468Z,230.62
2023-05-04T11:12:14.484Z,230.62
2023-05-04T11:13:14.514Z,236.25
2023-05-04T11:14:14.416Z,241.88
2023-05-04T11:15:14.420Z,247.50
2023-05-04T11:16:14.443Z,253.12
2023-05-04T11:18:14.469Z,258.75
2023-05-04T11:19:14.387Z,258.75
2023-05-04T11:20:14.371Z,258.75
2023-05-04T11:21:14.351Z,258.75
2023-05-04T11:22:14.336Z,258.75
2023-05-04T11:23:14.333Z,258.75
2023-05-04T11:24:14.315Z,258.75
2023-05-04T11:25:14.290Z,258.75
2023-05-04T11:26:14.286Z,258.75
2023-05-04T11:27:14.279Z,258.75
2023-05-04T11:28:14.803Z,258.75
2023-05-04T11:29:14.255Z,258.75
2023-05-04T11:30:14.339Z,258.75
2023-05-04T11:31:14.247Z,264.38
2023-05-04T11:32:14.223Z,270.00
2023-05-04T11:33:14.234Z,275.62
2023-05-04T11:34:14.197Z,275.62
2023-05-04T11:35:14.215Z,275.62
2023-05-04T11:36:14.179Z,281.25
2023-05-04T11:37:14.156Z,281.25
2023-05-04T11:38:14.140Z,281.25
2023-05-04T11:39:14.157Z,275.62
2023-05-04T11:40:14.229Z,275.62
2023-05-04T11:41:14.123Z,275.62
2023-05-04T11:42:14.133Z,275.62
2023-05-04T11:43:14.118Z,275.62
2023-05-04T11:44:14.072Z,286.88
2023-05-04T11:45:14.093Z,286.88
2023-05-04T11:46:14.116Z,292.50
2023-05-04T11:47:14.194Z,292.50
2023-05-04T11:48:14.697Z,298.12
2023-05-04T11:49:14.028Z,298.12
2023-05-04T11:50:14.034Z,303.75
2023-05-04T11:51:14.002Z,309.38
2023-05-04T11:52:13.989Z,309.38
2023-05-04T11:53:13.993Z,309.38
2023-05-04T11:54:13.969Z,309.38
2023-05-04T11:55:13.981Z,315.00
2023-05-04T11:56:13.941Z,315.00
2023-05-04T11:57:13.926Z,315.00
2023-05-04T11:58:13.915Z,315.00
2023-05-04T11:59:13.898Z,315.00
2023-05-04T12:00:13.907Z,320.62
2023-05-04T12:01:13.901Z,320.62
2023-05-04T12:02:13.902Z,315.00
2023-05-04T12:03:13.957Z,315.00
2023-05-04T12:04:14.014Z,315.00
2023-05-04T12:05:14.060Z,315.00
2023-05-04T12:06:13.845Z,309.38
2023-05-04T12:07:13.807Z,303.75
2023-05-04T12:08:13.819Z,298.12
2023-05-04T12:09:13.788Z,292.50
2023-05-04T12:10:13.833Z,286.88
2023-05-04T12:11:13.761Z,286.88
2023-05-04T12:12:13.727Z,281.25
2023-05-04T12:13:13.741Z,281.25
2023-05-04T12:14:13.740Z,275.62
2023-05-04T12:15:13.705Z,275.62
2023-05-04T12:16:13.737Z,275.62
2023-05-04T12:17:13.665Z,275.62
2023-05-04T12:18:13.665Z,281.25
2023-05-04T12:19:13.673Z,292.50
2023-05-04T12:20:13.649Z,303.75
2023-05-04T12:21:13.639Z,551.25
2023-05-04T12:22:13.625Z,1698.75
2023-05-04T12:23:13.615Z,2694.38
2023-05-04T12:24:13.602Z,2913.75
2023-05-04T12:25:13.603Z,3082.50
2023-05-04T12:26:13.607Z,3031.88
2023-05-04T12:27:13.560Z,2587.50
2023-05-04T12:28:13.546Z,2700.00
2023-05-04T12:29:13.545Z,3076.88
2023-05-04T12:30:13.533Z,3093.75
2023-05-04T12:31:13.531Z,2896.88
2023-05-04T12:32:13.572Z,2688.75
2023-05-04T12:33:13.486Z,2486.25
2023-05-04T12:34:13.462Z,2581.88
2023-05-04T12:35:13.474Z,2559.38
2023-05-04T12:36:13.470Z,2531.25
2023-05-04T12:37:13.438Z,2441.25
2023-05-04T12:38:13.416Z,2323.12
2023-05-04T12:39:14.690Z,2458.12
2023-05-04T12:40:25.176Z,2700.00
2023-05-04T12:41:13.442Z,2632.50
2023-05-04T12:42:13.396Z,2643.75
2023-05-04T12:43:13.360Z,2829.38
2023-05-04T12:44:13.354Z,2739.38
2023-05-04T12:45:13.349Z,2778.75
2023-05-04T12:46:13.378Z,2913.75
2023-05-04T12:47:13.340Z,2649.38
2023-05-04T12:48:13.314Z,2340.00